sensor_id;sensor_type;location;lat;lon;timestamp;P1;durP1;ratioP1;P2;durP2;ratioP2
21955;SDS011;11142;49.930;8.606;2023-11-21T00:00:16;6.05;;;2.45;;
21955;SDS011;11142;49.930;8.606;2023-11-21T00:02:46;5.30;;;2.13;;
21955;SDS011;11142;49.930;8.606;2023-11-21T00:05:14;7.45;;;2.25;;
21955;SDS011;11142;49.930;8.606;2023-11-21T00:07:43;4.32;;;2.10;;
21955;SDS011;11142;49.930;8.606;2023-11-21T00:10:11;6.03;;;2.15;;
21955;SDS011;11142;49.930;8.606;2023-11-21T00:12:43;9.70;;;2.85;;
21955;SDS011;11142;49.930;8.606;2023-11-21T00:15:16;9.35;;;2.72;;
21955;SDS011;11142;49.930;8.606;2023-11-21T00:17:47;7.68;;;2.25;;
21955;SDS011;11142;49.930;8.606;2023-11-21T00:20:16;7.25;;;2.55;;
21955;SDS011;11142;49.930;8.606;2023-11-21T00:22:44;5.05;;;2.15;;
21955;SDS011;11142;49.930;8.606;2023-11-21T00:25:13;4.07;;;2.13;;
21955;SDS011;11142;49.930;8.606;2023-11-21T00:27:44;6.07;;;2.72;;
21955;SDS011;11142;49.930;8.606;2023-11-21T00:30:15;5.53;;;2.63;;
21955;SDS011;11142;49.930;8.606;2023-11-21T00:32:46;8.27;;;2.58;;
21955;SDS011;11142;49.930;8.606;2023-11-21T00:35:15;5.43;;;2.67;;
21955;SDS011;11142;49.930;8.606;2023-11-21T00:37:43;6.13;;;2.70;;
21955;SDS011;11142;49.930;8.606;2023-11-21T00:40:12;9.48;;;3.08;;
21955;SDS011;11142;49.930;8.606;2023-11-21T00:42:42;6.53;;;2.90;;
21955;SDS011;11142;49.930;8.606;2023-11-21T00:45:10;10.25;;;2.65;;
21955;SDS011;11142;49.930;8.606;2023-11-21T00:47:39;5.63;;;2.85;;
21955;SDS011;11142;49.930;8.606;2023-11-21T00:50:09;6.20;;;2.55;;
21955;SDS011;11142;49.930;8.606;2023-11-21T00:52:37;8.23;;;2.90;;
21955;SDS011;11142;49.930;8.606;2023-11-21T00:55:07;8.77;;;2.63;;
21955;SDS011;11142;49.930;8.606;2023-11-21T00:57:39;7.57;;;3.00;;
21955;SDS011;11142;49.930;8.606;2023-11-21T01:00:08;6.78;;;3.15;;
21955;SDS011;11142;49.930;8.606;2023-11-21T01:02:41;4.28;;;1.83;;
21955;SDS011;11142;49.930;8.606;2023-11-21T01:05:11;7.95;;;3.75;;
21955;SDS011;11142;49.930;8.606;2023-11-21T01:07:39;7.57;;;3.30;;
21955;SDS011;11142;49.930;8.606;2023-11-21T01:10:08;11.02;;;4.28;;
21955;SDS011;11142;49.930;8.606;2023-11-21T01:12:38;6.63;;;3.20;;
21955;SDS011;11142;49.930;8.606;2023-11-21T01:15:07;6.03;;;3.42;;
21955;SDS011;11142;49.930;8.606;2023-11-21T01:17:36;6.38;;;3.78;;
21955;SDS011;11142;49.930;8.606;2023-11-21T01:20:07;9.13;;;3.90;;
21955;SDS011;11142;49.930;8.606;2023-11-21T01:22:42;12.05;;;3.85;;
21955;SDS011;11142;49.930;8.606;2023-11-21T01:25:10;10.02;;;4.35;;
21955;SDS011;11142;49.930;8.606;2023-11-21T01:27:41;9.35;;;4.25;;
21955;SDS011;11142;49.930;8.606;2023-11-21T01:30:11;14.88;;;4.55;;
21955;SDS011;11142;49.930;8.606;2023-11-21T01:32:43;11.05;;;4.95;;
21955;SDS011;11142;49.930;8.606;2023-11-21T01:35:12;9.52;;;4.47;;
21955;SDS011;11142;49.930;8.606;2023-11-21T01:37:42;8.23;;;4.28;;
21955;SDS011;11142;49.930;8.606;2023-11-21T01:40:12;9.10;;;5.05;;
21955;SDS011;11142;49.930;8.606;2023-11-21T01:42:41;10.18;;;4.70;;
21955;SDS011;11142;49.930;8.606;2023-11-21T01:45:10;9.38;;;4.85;;
21955;SDS011;11142;49.930;8.606;2023-11-21T01:47:40;9.98;;;4.72;;
21955;SDS011;11142;49.930;8.606;2023-11-21T01:50:12;8.50;;;5.10;;
21955;SDS011;11142;49.930;8.606;2023-11-21T01:52:48;8.63;;;4.78;;
21955;SDS011;11142;49.930;8.606;2023-11-21T01:55:17;11.85;;;4.53;;
21955;SDS011;11142;49.930;8.606;2023-11-21T01:57:55;13.48;;;4.90;;
21955;SDS011;11142;49.930;8.606;2023-11-21T02:00:24;15.60;;;4.88;;
21955;SDS011;11142;49.930;8.606;2023-11-21T02:02:55;10.25;;;5.60;;
21955;SDS011;11142;49.930;8.606;2023-11-21T02:05:26;9.60;;;4.97;;
21955;SDS011;11142;49.930;8.606;2023-11-21T02:08:00;10.75;;;5.45;;
21955;SDS011;11142;49.930;8.606;2023-11-21T02:10:30;11.07;;;4.82;;
21955;SDS011;11142;49.930;8.606;2023-11-21T02:13:00;11.48;;;4.75;;
21955;SDS011;11142;49.930;8.606;2023-11-21T02:15:29;12.40;;;5.50;;
21955;SDS011;11142;49.930;8.606;2023-11-21T02:17:58;11.10;;;5.10;;
21955;SDS011;11142;49.930;8.606;2023-11-21T02:20:30;10.65;;;4.35;;
21955;SDS011;11142;49.930;8.606;2023-11-21T02:23:04;10.80;;;4.82;;
21955;SDS011;11142;49.930;8.606;2023-11-21T02:25:33;13.50;;;4.93;;
21955;SDS011;11142;49.930;8.606;2023-11-21T02:28:04;14.43;;;6.90;;
21955;SDS011;11142;49.930;8.606;2023-11-21T02:30:35;13.63;;;5.55;;
21955;SDS011;11142;49.930;8.606;2023-11-21T02:33:04;11.77;;;5.45;;
21955;SDS011;11142;49.930;8.606;2023-11-21T02:35:35;11.45;;;5.72;;
21955;SDS011;11142;49.930;8.606;2023-11-21T02:38:06;11.95;;;7.00;;
21955;SDS011;11142;49.930;8.606;2023-11-21T02:40:34;13.50;;;7.28;;
21955;SDS011;11142;49.930;8.606;2023-11-21T02:43:05;16.88;;;6.28;;
21955;SDS011;11142;49.930;8.606;2023-11-21T02:45:33;11.55;;;6.88;;
21955;SDS011;11142;49.930;8.606;2023-11-21T02:48:03;15.02;;;5.95;;
21955;SDS011;11142;49.930;8.606;2023-11-21T02:50:32;14.75;;;6.70;;
21955;SDS011;11142;49.930;8.606;2023-11-21T02:53:01;13.38;;;6.95;;
21955;SDS011;11142;49.930;8.606;2023-11-21T02:55:35;13.75;;;6.63;;
21955;SDS011;11142;49.930;8.606;2023-11-21T02:58:04;10.93;;;6.15;;
21955;SDS011;11142;49.930;8.606;2023-11-21T03:00:33;11.77;;;5.97;;
21955;SDS011;11142;49.930;8.606;2023-11-21T03:03:02;12.57;;;5.90;;
21955;SDS011;11142;49.930;8.606;2023-11-21T03:05:31;9.90;;;5.43;;
21955;SDS011;11142;49.930;8.606;2023-11-21T03:08:02;12.13;;;6.13;;
21955;SDS011;11142;49.930;8.606;2023-11-21T03:10:30;11.93;;;6.68;;
21955;SDS011;11142;49.930;8.606;2023-11-21T03:13:01;12.75;;;6.63;;
21955;SDS011;11142;49.930;8.606;2023-11-21T03:15:30;9.50;;;5.60;;
21955;SDS011;11142;49.930;8.606;2023-11-21T03:17:59;12.43;;;6.00;;
21955;SDS011;11142;49.930;8.606;2023-11-21T03:20:29;11.90;;;7.05;;
21955;SDS011;11142;49.930;8.606;2023-11-21T03:22:57;12.60;;;6.53;;
21955;SDS011;11142;49.930;8.606;2023-11-21T03:25:27;9.70;;;5.93;;
21955;SDS011;11142;49.930;8.606;2023-11-21T03:27:57;10.65;;;5.80;;
21955;SDS011;11142;49.930;8.606;2023-11-21T03:30:30;8.93;;;5.72;;
21955;SDS011;11142;49.930;8.606;2023-11-21T03:32:58;13.63;;;6.22;;
21955;SDS011;11142;49.930;8.606;2023-11-21T03:35:26;13.00;;;6.00;;
21955;SDS011;11142;49.930;8.606;2023-11-21T03:37:55;17.35;;;7.32;;
21955;SDS011;11142;49.930;8.606;2023-11-21T03:40:23;12.77;;;6.90;;
21955;SDS011;11142;49.930;8.606;2023-11-21T03:42:53;11.00;;;6.65;;
21955;SDS011;11142;49.930;8.606;2023-11-21T03:45:21;11.48;;;7.10;;
21955;SDS011;11142;49.930;8.606;2023-11-21T03:47:52;15.77;;;7.07;;
21955;SDS011;11142;49.930;8.606;2023-11-21T03:50:21;11.10;;;6.22;;
21955;SDS011;11142;49.930;8.606;2023-11-21T03:52:50;12.35;;;6.70;;
21955;SDS011;11142;49.930;8.606;2023-11-21T03:55:20;14.43;;;6.32;;
21955;SDS011;11142;49.930;8.606;2023-11-21T03:57:50;14.18;;;6.97;;
21955;SDS011;11142;49.930;8.606;2023-11-21T04:00:20;13.68;;;7.07;;
21955;SDS011;11142;49.930;8.606;2023-11-21T04:02:49;17.33;;;7.22;;
21955;SDS011;11142;49.930;8.606;2023-11-21T04:05:21;14.88;;;7.63;;
21955;SDS011;11142;49.930;8.606;2023-11-21T04:07:51;9.93;;;6.53;;
21955;SDS011;11142;49.930;8.606;2023-11-21T04:10:20;15.73;;;7.95;;
21955;SDS011;11142;49.930;8.606;2023-11-21T04:12:48;15.25;;;8.02;;
21955;SDS011;11142;49.930;8.606;2023-11-21T04:15:17;13.20;;;7.40;;
21955;SDS011;11142;49.930;8.606;2023-11-21T04:17:45;16.75;;;8.35;;
21955;SDS011;11142;49.930;8.606;2023-11-21T04:20:13;18.08;;;8.43;;
21955;SDS011;11142;49.930;8.606;2023-11-21T04:22:44;16.10;;;8.15;;
21955;SDS011;11142;49.930;8.606;2023-11-21T04:25:15;17.42;;;8.43;;
21955;SDS011;11142;49.930;8.606;2023-11-21T04:27:45;14.68;;;8.43;;
21955;SDS011;11142;49.930;8.606;2023-11-21T04:30:14;15.68;;;8.48;;
21955;SDS011;11142;49.930;8.606;2023-11-21T04:32:43;13.95;;;8.13;;
21955;SDS011;11142;49.930;8.606;2023-11-21T04:35:11;28.70;;;8.27;;
21955;SDS011;11142;49.930;8.606;2023-11-21T04:37:40;13.82;;;7.20;;
21955;SDS011;11142;49.930;8.606;2023-11-21T04:40:11;15.35;;;7.68;;
21955;SDS011;11142;49.930;8.606;2023-11-21T04:42:40;12.75;;;7.15;;
21955;SDS011;11142;49.930;8.606;2023-11-21T04:45:08;15.25;;;7.07;;
21955;SDS011;11142;49.930;8.606;2023-11-21T04:47:39;13.02;;;6.32;;
21955;SDS011;11142;49.930;8.606;2023-11-21T04:50:08;9.73;;;5.70;;
21955;SDS011;11142;49.930;8.606;2023-11-21T04:52:37;11.80;;;6.30;;
21955;SDS011;11142;49.930;8.606;2023-11-21T04:55:05;9.75;;;4.47;;
21955;SDS011;11142;49.930;8.606;2023-11-21T04:57:39;11.55;;;5.10;;
21955;SDS011;11142;49.930;8.606;2023-11-21T05:00:09;11.88;;;5.13;;
21955;SDS011;11142;49.930;8.606;2023-11-21T05:02:38;9.35;;;5.07;;
21955;SDS011;11142;49.930;8.606;2023-11-21T05:05:07;9.43;;;4.55;;
21955;SDS011;11142;49.930;8.606;2023-11-21T05:07:37;7.93;;;3.90;;
21955;SDS011;11142;49.930;8.606;2023-11-21T05:10:06;9.07;;;4.43;;
21955;SDS011;11142;49.930;8.606;2023-11-21T05:12:41;6.25;;;3.65;;
21955;SDS011;11142;49.930;8.606;2023-11-21T05:15:10;8.52;;;3.60;;
21955;SDS011;11142;49.930;8.606;2023-11-21T05:17:43;7.57;;;3.95;;
21955;SDS011;11142;49.930;8.606;2023-11-21T05:20:13;6.72;;;3.90;;
21955;SDS011;11142;49.930;8.606;2023-11-21T05:22:45;9.73;;;4.05;;
21955;SDS011;11142;49.930;8.606;2023-11-21T05:25:13;7.38;;;3.72;;
21955;SDS011;11142;49.930;8.606;2023-11-21T05:27:48;7.13;;;3.60;;
21955;SDS011;11142;49.930;8.606;2023-11-21T05:30:21;5.68;;;3.35;;
21955;SDS011;11142;49.930;8.606;2023-11-21T05:32:49;4.53;;;2.95;;
21955;SDS011;11142;49.930;8.606;2023-11-21T05:35:17;5.03;;;3.30;;
21955;SDS011;11142;49.930;8.606;2023-11-21T05:37:45;5.20;;;3.40;;
21955;SDS011;11142;49.930;8.606;2023-11-21T05:40:17;5.47;;;2.70;;
21955;SDS011;11142;49.930;8.606;2023-11-21T05:42:45;3.05;;;2.13;;
21955;SDS011;11142;49.930;8.606;2023-11-21T05:45:15;4.00;;;2.25;;
21955;SDS011;11142;49.930;8.606;2023-11-21T05:47:47;2.50;;;1.65;;
21955;SDS011;11142;49.930;8.606;2023-11-21T05:50:16;3.92;;;2.25;;
21955;SDS011;11142;49.930;8.606;2023-11-21T05:52:45;4.72;;;2.50;;
21955;SDS011;11142;49.930;8.606;2023-11-21T05:55:15;3.70;;;2.40;;
21955;SDS011;11142;49.930;8.606;2023-11-21T05:57:44;5.35;;;2.53;;
21955;SDS011;11142;49.930;8.606;2023-11-21T06:00:13;4.45;;;2.45;;
21955;SDS011;11142;49.930;8.606;2023-11-21T06:02:48;3.78;;;2.08;;
21955;SDS011;11142;49.930;8.606;2023-11-21T06:05:17;3.95;;;2.42;;
21955;SDS011;11142;49.930;8.606;2023-11-21T06:07:46;5.70;;;2.80;;
21955;SDS011;11142;49.930;8.606;2023-11-21T06:10:15;3.45;;;2.25;;
21955;SDS011;11142;49.930;8.606;2023-11-21T06:12:46;5.68;;;2.55;;
21955;SDS011;11142;49.930;8.606;2023-11-21T06:15:16;9.48;;;2.63;;
21955;SDS011;11142;49.930;8.606;2023-11-21T06:17:46;7.85;;;3.03;;
21955;SDS011;11142;49.930;8.606;2023-11-21T06:20:19;8.88;;;3.10;;
21955;SDS011;11142;49.930;8.606;2023-11-21T06:22:48;5.68;;;3.65;;
21955;SDS011;11142;49.930;8.606;2023-11-21T06:25:19;8.85;;;4.70;;
21955;SDS011;11142;49.930;8.606;2023-11-21T06:27:47;5.55;;;3.15;;
21955;SDS011;11142;49.930;8.606;2023-11-21T06:30:18;7.10;;;3.50;;
21955;SDS011;11142;49.930;8.606;2023-11-21T06:32:47;7.85;;;4.22;;
21955;SDS011;11142;49.930;8.606;2023-11-21T06:35:16;10.32;;;4.65;;
21955;SDS011;11142;49.930;8.606;2023-11-21T06:37:45;9.82;;;5.00;;
21955;SDS011;11142;49.930;8.606;2023-11-21T06:40:16;14.57;;;5.22;;
21955;SDS011;11142;49.930;8.606;2023-11-21T06:42:47;8.77;;;4.97;;
21955;SDS011;11142;49.930;8.606;2023-11-21T06:45:15;10.65;;;4.57;;
21955;SDS011;11142;49.930;8.606;2023-11-21T06:47:49;10.18;;;5.10;;
21955;SDS011;11142;49.930;8.606;2023-11-21T06:50:18;13.48;;;5.35;;
21955;SDS011;11142;49.930;8.606;2023-11-21T06:52:47;14.82;;;6.05;;
21955;SDS011;11142;49.930;8.606;2023-11-21T06:55:16;10.25;;;4.90;;
21955;SDS011;11142;49.930;8.606;2023-11-21T06:57:45;10.02;;;4.95;;
21955;SDS011;11142;49.930;8.606;2023-11-21T07:00:15;14.45;;;6.10;;
21955;SDS011;11142;49.930;8.606;2023-11-21T07:02:47;11.50;;;5.85;;
21955;SDS011;11142;49.930;8.606;2023-11-21T07:05:16;14.93;;;6.25;;
21955;SDS011;11142;49.930;8.606;2023-11-21T07:07:48;14.48;;;5.93;;
21955;SDS011;11142;49.930;8.606;2023-11-21T07:10:17;17.52;;;6.28;;
21955;SDS011;11142;49.930;8.606;2023-11-21T07:12:49;11.82;;;5.43;;
21955;SDS011;11142;49.930;8.606;2023-11-21T07:15:19;12.73;;;5.88;;
21955;SDS011;11142;49.930;8.606;2023-11-21T07:17:48;17.33;;;6.55;;
21955;SDS011;11142;49.930;8.606;2023-11-21T07:20:20;12.30;;;5.93;;
21955;SDS011;11142;49.930;8.606;2023-11-21T07:22:48;18.77;;;6.88;;
21955;SDS011;11142;49.930;8.606;2023-11-21T07:25:18;14.27;;;6.88;;
21955;SDS011;11142;49.930;8.606;2023-11-21T07:27:49;16.20;;;5.95;;
21955;SDS011;11142;49.930;8.606;2023-11-21T07:30:18;14.70;;;6.55;;
21955;SDS011;11142;49.930;8.606;2023-11-21T07:32:46;18.35;;;6.93;;
21955;SDS011;11142;49.930;8.606;2023-11-21T07:35:16;13.80;;;6.55;;
21955;SDS011;11142;49.930;8.606;2023-11-21T07:37:44;17.30;;;7.35;;
21955;SDS011;11142;49.930;8.606;2023-11-21T07:40:14;19.23;;;7.97;;
21955;SDS011;11142;49.930;8.606;2023-11-21T07:42:43;20.85;;;8.20;;
21955;SDS011;11142;49.930;8.606;2023-11-21T07:45:11;20.27;;;8.48;;
21955;SDS011;11142;49.930;8.606;2023-11-21T07:47:41;22.38;;;8.52;;
21955;SDS011;11142;49.930;8.606;2023-11-21T07:50:14;22.63;;;8.48;;
21955;SDS011;11142;49.930;8.606;2023-11-21T07:52:43;21.02;;;8.18;;
21955;SDS011;11142;49.930;8.606;2023-11-21T07:55:11;19.45;;;8.55;;
21955;SDS011;11142;49.930;8.606;2023-11-21T07:57:40;20.10;;;8.27;;
21955;SDS011;11142;49.930;8.606;2023-11-21T08:00:09;24.63;;;8.55;;
21955;SDS011;11142;49.930;8.606;2023-11-21T08:02:39;20.50;;;8.52;;
21955;SDS011;11142;49.930;8.606;2023-11-21T08:05:14;22.08;;;8.45;;
21955;SDS011;11142;49.930;8.606;2023-11-21T08:07:54;23.13;;;8.98;;
21955;SDS011;11142;49.930;8.606;2023-11-21T08:10:22;22.25;;;8.25;;
21955;SDS011;11142;49.930;8.606;2023-11-21T08:12:51;21.48;;;8.73;;
21955;SDS011;11142;49.930;8.606;2023-11-21T08:15:21;17.63;;;7.63;;
21955;SDS011;11142;49.930;8.606;2023-11-21T08:17:50;21.00;;;8.75;;
21955;SDS011;11142;49.930;8.606;2023-11-21T08:20:19;19.35;;;7.97;;
21955;SDS011;11142;49.930;8.606;2023-11-21T08:22:50;17.20;;;7.70;;
21955;SDS011;11142;49.930;8.606;2023-11-21T08:25:19;18.73;;;8.55;;
21955;SDS011;11142;49.930;8.606;2023-11-21T08:27:47;21.45;;;9.10;;
21955;SDS011;11142;49.930;8.606;2023-11-21T08:30:16;15.20;;;7.60;;
21955;SDS011;11142;49.930;8.606;2023-11-21T08:32:46;17.42;;;7.75;;
21955;SDS011;11142;49.930;8.606;2023-11-21T08:35:15;15.88;;;6.75;;
21955;SDS011;11142;49.930;8.606;2023-11-21T08:37:48;22.45;;;8.95;;
21955;SDS011;11142;49.930;8.606;2023-11-21T08:40:16;16.10;;;7.35;;
21955;SDS011;11142;49.930;8.606;2023-11-21T08:42:47;16.15;;;6.40;;
21955;SDS011;11142;49.930;8.606;2023-11-21T08:45:18;13.15;;;6.72;;
21955;SDS011;11142;49.930;8.606;2023-11-21T08:47:48;14.20;;;7.20;;
21955;SDS011;11142;49.930;8.606;2023-11-21T08:50:17;16.02;;;6.90;;
21955;SDS011;11142;49.930;8.606;2023-11-21T08:52:47;13.88;;;6.10;;
21955;SDS011;11142;49.930;8.606;2023-11-21T08:55:16;11.85;;;6.53;;
21955;SDS011;11142;49.930;8.606;2023-11-21T08:57:46;13.23;;;6.63;;
21955;SDS011;11142;49.930;8.606;2023-11-21T09:00:15;15.05;;;6.43;;
21955;SDS011;11142;49.930;8.606;2023-11-21T09:02:45;13.68;;;5.57;;
21955;SDS011;11142;49.930;8.606;2023-11-21T09:05:14;17.90;;;5.75;;
21955;SDS011;11142;49.930;8.606;2023-11-21T09:07:43;10.50;;;5.10;;
21955;SDS011;11142;49.930;8.606;2023-11-21T09:10:14;13.07;;;6.07;;
21955;SDS011;11142;49.930;8.606;2023-11-21T09:12:43;12.52;;;5.85;;
21955;SDS011;11142;49.930;8.606;2023-11-21T09:15:11;15.68;;;5.43;;
21955;SDS011;11142;49.930;8.606;2023-11-21T09:17:40;11.82;;;6.20;;
21955;SDS011;11142;49.930;8.606;2023-11-21T09:20:10;13.88;;;5.57;;
21955;SDS011;11142;49.930;8.606;2023-11-21T09:22:39;11.60;;;5.80;;
21955;SDS011;11142;49.930;8.606;2023-11-21T09:25:07;10.98;;;5.40;;
21955;SDS011;11142;49.930;8.606;2023-11-21T09:27:37;14.30;;;5.97;;
21955;SDS011;11142;49.930;8.606;2023-11-21T09:30:06;13.90;;;5.70;;
21955;SDS011;11142;49.930;8.606;2023-11-21T09:32:37;16.73;;;5.32;;
21955;SDS011;11142;49.930;8.606;2023-11-21T09:35:07;16.27;;;5.30;;
21955;SDS011;11142;49.930;8.606;2023-11-21T09:37:37;13.57;;;5.82;;
21955;SDS011;11142;49.930;8.606;2023-11-21T09:40:06;11.90;;;6.00;;
21955;SDS011;11142;49.930;8.606;2023-11-21T09:42:42;10.80;;;5.35;;
21955;SDS011;11142;49.930;8.606;2023-11-21T09:45:15;11.75;;;5.65;;
21955;SDS011;11142;49.930;8.606;2023-11-21T09:47:50;10.27;;;5.45;;
21955;SDS011;11142;49.930;8.606;2023-11-21T09:50:20;10.95;;;5.07;;
21955;SDS011;11142;49.930;8.606;2023-11-21T09:55:42;14.15;;;5.65;;
21955;SDS011;11142;49.930;8.606;2023-11-21T09:58:13;11.45;;;4.78;;
21955;SDS011;11142;49.930;8.606;2023-11-21T10:00:42;9.18;;;5.18;;
21955;SDS011;11142;49.930;8.606;2023-11-21T10:03:11;15.18;;;4.72;;
21955;SDS011;11142;49.930;8.606;2023-11-21T10:05:43;13.23;;;5.75;;
21955;SDS011;11142;49.930;8.606;2023-11-21T10:08:13;12.50;;;5.35;;
21955;SDS011;11142;49.930;8.606;2023-11-21T10:10:42;10.05;;;4.85;;
21955;SDS011;11142;49.930;8.606;2023-11-21T10:13:13;10.02;;;4.90;;
21955;SDS011;11142;49.930;8.606;2023-11-21T10:15:44;13.05;;;5.30;;
21955;SDS011;11142;49.930;8.606;2023-11-21T10:18:18;11.32;;;4.75;;
21955;SDS011;11142;49.930;8.606;2023-11-21T10:20:49;9.63;;;4.43;;
21955;SDS011;11142;49.930;8.606;2023-11-21T10:23:20;11.40;;;5.10;;
21955;SDS011;11142;49.930;8.606;2023-11-21T10:25:50;10.35;;;4.68;;
21955;SDS011;11142;49.930;8.606;2023-11-21T10:28:27;10.60;;;4.40;;
21955;SDS011;11142;49.930;8.606;2023-11-21T10:30:55;8.00;;;4.13;;
21955;SDS011;11142;49.930;8.606;2023-11-21T10:33:26;9.00;;;4.10;;
21955;SDS011;11142;49.930;8.606;2023-11-21T10:35:56;9.20;;;3.92;;
21955;SDS011;11142;49.930;8.606;2023-11-21T10:38:24;8.88;;;3.63;;
21955;SDS011;11142;49.930;8.606;2023-11-21T10:40:54;6.70;;;3.70;;
21955;SDS011;11142;49.930;8.606;2023-11-21T10:43:24;9.75;;;4.03;;
21955;SDS011;11142;49.930;8.606;2023-11-21T10:45:55;8.52;;;3.80;;
21955;SDS011;11142;49.930;8.606;2023-11-21T10:48:26;5.90;;;2.67;;
21955;SDS011;11142;49.930;8.606;2023-11-21T10:50:54;8.40;;;3.60;;
21955;SDS011;11142;49.930;8.606;2023-11-21T10:53:23;7.05;;;3.50;;
21955;SDS011;11142;49.930;8.606;2023-11-21T10:55:56;7.43;;;3.65;;
21955;SDS011;11142;49.930;8.606;2023-11-21T10:58:30;8.45;;;3.85;;
21955;SDS011;11142;49.930;8.606;2023-11-21T11:01:01;8.07;;;3.50;;
21955;SDS011;11142;49.930;8.606;2023-11-21T11:03:31;8.32;;;3.25;;
21955;SDS011;11142;49.930;8.606;2023-11-21T11:06:01;6.10;;;3.20;;
21955;SDS011;11142;49.930;8.606;2023-11-21T11:08:30;5.28;;;2.70;;
21955;SDS011;11142;49.930;8.606;2023-11-21T11:11:04;4.72;;;2.78;;
21955;SDS011;11142;49.930;8.606;2023-11-21T11:13:33;5.35;;;2.40;;
21955;SDS011;11142;49.930;8.606;2023-11-21T11:16:02;4.82;;;2.67;;
21955;SDS011;11142;49.930;8.606;2023-11-21T11:18:34;2.97;;;1.77;;
21955;SDS011;11142;49.930;8.606;2023-11-21T11:21:07;7.13;;;2.50;;
21955;SDS011;11142;49.930;8.606;2023-11-21T11:23:53;7.20;;;2.70;;
21955;SDS011;11142;49.930;8.606;2023-11-21T11:26:37;4.80;;;2.33;;
21955;SDS011;11142;49.930;8.606;2023-11-21T11:29:14;7.85;;;2.58;;
21955;SDS011;11142;49.930;8.606;2023-11-21T11:31:55;6.35;;;2.78;;
21955;SDS011;11142;49.930;8.606;2023-11-21T11:34:34;6.95;;;2.90;;
21955;SDS011;11142;49.930;8.606;2023-11-21T11:37:15;7.90;;;2.88;;
21955;SDS011;11142;49.930;8.606;2023-11-21T11:39:44;7.68;;;2.90;;
21955;SDS011;11142;49.930;8.606;2023-11-21T11:42:14;4.53;;;2.47;;
21955;SDS011;11142;49.930;8.606;2023-11-21T11:44:48;5.03;;;2.75;;
21955;SDS011;11142;49.930;8.606;2023-11-21T11:47:24;6.35;;;2.88;;
21955;SDS011;11142;49.930;8.606;2023-11-21T11:52:45;9.43;;;3.38;;
21955;SDS011;11142;49.930;8.606;2023-11-21T11:55:16;7.60;;;3.17;;
21955;SDS011;11142;49.930;8.606;2023-11-21T11:57:47;8.13;;;3.22;;
21955;SDS011;11142;49.930;8.606;2023-11-21T12:00:17;5.32;;;2.63;;
21955;SDS011;11142;49.930;8.606;2023-11-21T12:02:50;7.82;;;3.35;;
21955;SDS011;11142;49.930;8.606;2023-11-21T12:05:19;5.20;;;2.83;;
21955;SDS011;11142;49.930;8.606;2023-11-21T12:07:50;6.13;;;2.72;;
21955;SDS011;11142;49.930;8.606;2023-11-21T12:10:20;6.65;;;3.03;;
21955;SDS011;11142;49.930;8.606;2023-11-21T12:12:52;3.97;;;2.42;;
21955;SDS011;11142;49.930;8.606;2023-11-21T12:15:22;6.32;;;2.78;;
21955;SDS011;11142;49.930;8.606;2023-11-21T12:17:52;7.97;;;3.05;;
21955;SDS011;11142;49.930;8.606;2023-11-21T12:20:20;11.45;;;3.95;;
21955;SDS011;11142;49.930;8.606;2023-11-21T12:22:50;7.63;;;3.22;;
21955;SDS011;11142;49.930;8.606;2023-11-21T12:25:20;6.85;;;3.05;;
21955;SDS011;11142;49.930;8.606;2023-11-21T12:27:50;5.95;;;3.33;;
21955;SDS011;11142;49.930;8.606;2023-11-21T12:30:19;5.82;;;3.10;;
21955;SDS011;11142;49.930;8.606;2023-11-21T12:32:50;8.50;;;3.03;;
21955;SDS011;11142;49.930;8.606;2023-11-21T12:35:21;5.40;;;3.15;;
21955;SDS011;11142;49.930;8.606;2023-11-21T12:37:50;7.97;;;3.95;;
21955;SDS011;11142;49.930;8.606;2023-11-21T12:40:20;7.63;;;2.75;;
21955;SDS011;11142;49.930;8.606;2023-11-21T12:42:50;5.95;;;3.30;;
21955;SDS011;11142;49.930;8.606;2023-11-21T12:45:20;7.30;;;3.13;;
21955;SDS011;11142;49.930;8.606;2023-11-21T12:47:49;9.07;;;3.80;;
21955;SDS011;11142;49.930;8.606;2023-11-21T12:50:23;12.82;;;4.22;;
21955;SDS011;11142;49.930;8.606;2023-11-21T12:52:58;8.40;;;3.72;;
21955;SDS011;11142;49.930;8.606;2023-11-21T12:55:30;9.55;;;4.20;;
21955;SDS011;11142;49.930;8.606;2023-11-21T12:58:01;8.73;;;3.60;;
21955;SDS011;11142;49.930;8.606;2023-11-21T13:00:38;11.45;;;3.80;;
21955;SDS011;11142;49.930;8.606;2023-11-21T13:03:11;9.75;;;3.78;;
21955;SDS011;11142;49.930;8.606;2023-11-21T13:05:49;6.35;;;3.47;;
21955;SDS011;11142;49.930;8.606;2023-11-21T13:08:21;7.50;;;3.58;;
21955;SDS011;11142;49.930;8.606;2023-11-21T13:10:51;6.15;;;3.00;;
21955;SDS011;11142;49.930;8.606;2023-11-21T13:13:22;7.60;;;3.30;;
21955;SDS011;11142;49.930;8.606;2023-11-21T13:15:55;9.40;;;3.70;;
21955;SDS011;11142;49.930;8.606;2023-11-21T13:18:28;6.95;;;3.20;;
21955;SDS011;11142;49.930;8.606;2023-11-21T13:20:58;9.05;;;3.38;;
21955;SDS011;11142;49.930;8.606;2023-11-21T13:23:28;7.95;;;4.05;;
21955;SDS011;11142;49.930;8.606;2023-11-21T13:25:56;11.02;;;3.85;;
21955;SDS011;11142;49.930;8.606;2023-11-21T13:28:32;12.18;;;3.65;;
21955;SDS011;11142;49.930;8.606;2023-11-21T13:31:02;9.15;;;3.80;;
21955;SDS011;11142;49.930;8.606;2023-11-21T13:33:39;7.00;;;3.30;;
21955;SDS011;11142;49.930;8.606;2023-11-21T13:36:11;8.73;;;3.65;;
21955;SDS011;11142;49.930;8.606;2023-11-21T13:38:41;10.52;;;3.88;;
21955;SDS011;11142;49.930;8.606;2023-11-21T13:41:11;12.25;;;3.85;;
21955;SDS011;11142;49.930;8.606;2023-11-21T13:43:41;13.05;;;5.13;;
21955;SDS011;11142;49.930;8.606;2023-11-21T13:46:17;8.43;;;3.67;;
21955;SDS011;11142;49.930;8.606;2023-11-21T13:48:50;10.55;;;5.82;;
21955;SDS011;11142;49.930;8.606;2023-11-21T13:51:26;4.72;;;2.97;;
21955;SDS011;11142;49.930;8.606;2023-11-21T13:54:05;7.28;;;3.60;;
21955;SDS011;11142;49.930;8.606;2023-11-21T13:56:37;7.18;;;3.47;;
21955;SDS011;11142;49.930;8.606;2023-11-21T13:59:08;15.02;;;7.72;;
21955;SDS011;11142;49.930;8.606;2023-11-21T14:01:45;8.95;;;3.40;;
21955;SDS011;11142;49.930;8.606;2023-11-21T14:04:28;5.07;;;3.03;;
21955;SDS011;11142;49.930;8.606;2023-11-21T14:07:14;8.02;;;4.63;;
21955;SDS011;11142;49.930;8.606;2023-11-21T14:09:53;6.68;;;3.72;;
21955;SDS011;11142;49.930;8.606;2023-11-21T14:12:21;6.07;;;2.88;;
21955;SDS011;11142;49.930;8.606;2023-11-21T14:14:50;6.05;;;3.15;;
21955;SDS011;11142;49.930;8.606;2023-11-21T14:17:18;5.88;;;3.10;;
21955;SDS011;11142;49.930;8.606;2023-11-21T14:19:50;4.88;;;2.95;;
21955;SDS011;11142;49.930;8.606;2023-11-21T14:22:19;7.35;;;3.55;;
21955;SDS011;11142;49.930;8.606;2023-11-21T14:24:47;9.55;;;4.22;;
21955;SDS011;11142;49.930;8.606;2023-11-21T14:27:18;10.32;;;3.47;;
21955;SDS011;11142;49.930;8.606;2023-11-21T14:29:47;6.93;;;3.47;;
21955;SDS011;11142;49.930;8.606;2023-11-21T14:32:15;5.72;;;3.28;;
21955;SDS011;11142;49.930;8.606;2023-11-21T14:34:43;4.82;;;3.05;;
21955;SDS011;11142;49.930;8.606;2023-11-21T14:37:19;6.82;;;3.17;;
21955;SDS011;11142;49.930;8.606;2023-11-21T14:39:50;6.25;;;3.47;;
21955;SDS011;11142;49.930;8.606;2023-11-21T14:42:22;11.10;;;3.67;;
21955;SDS011;11142;49.930;8.606;2023-11-21T14:44:52;7.47;;;3.42;;
21955;SDS011;11142;49.930;8.606;2023-11-21T14:47:33;6.25;;;4.00;;
21955;SDS011;11142;49.930;8.606;2023-11-21T14:50:02;9.07;;;3.83;;
21955;SDS011;11142;49.930;8.606;2023-11-21T14:52:53;8.70;;;4.03;;
21955;SDS011;11142;49.930;8.606;2023-11-21T14:55:25;11.45;;;4.68;;
21955;SDS011;11142;49.930;8.606;2023-11-21T14:57:58;10.48;;;4.50;;
21955;SDS011;11142;49.930;8.606;2023-11-21T15:00:31;33.08;;;18.00;;
21955;SDS011;11142;49.930;8.606;2023-11-21T15:03:11;9.50;;;4.75;;
21955;SDS011;11142;49.930;8.606;2023-11-21T15:05:58;40.88;;;19.63;;